Arklow Rogue — EIGD — position and weather

sailwx.info

Track history (hours):
 
Tides and Currents Weather Stations Pressure Air Temp Water Temp Dewpoint Dewpoint Depression Visibility Wind Speed Wind Dir Waves Ship Positions

Arklow Rogue

Last reported at 2017-Aug-21 18:41 UTC. Time now 2017-Aug-22 16:54 UTC.
Position N 50°58' W 010°41'.

Length 90 m; draft 3.4 m.

Type: Cargo ship. MMSI: 250000960.

Date/timePositionNaut miles runAvg speedWind from/ knotsBaromVisibWave heightAir tempDewpointWater temp
2017-Aug-21 18:41N 50°58' W 010°41'39711.0
2017-Aug-20 06:26N 44°21' W 010°20'1111.2
2017-Aug-20 05:26N 44°10' W 010°20'511.0
2017-Aug-20 04:59N 44°05' W 010°20'199 9.4
2017-Aug-19 07:55N 40°47' W 010°03'3 8.2
2017-Aug-19 07:30N 40°43' W 010°03'6 8.2
2017-Aug-19 06:48N 40°38' W 010°03'3 8.8
2017-Aug-19 06:30N 40°35' W 010°03'7 9.0
2017-Aug-19 05:43N 40°28' W 010°02'2 9.4
2017-Aug-19 05:29N 40°26' W 010°02'5 9.5
2017-Aug-19 04:57N 40°21' W 010°01'5 9.7
2017-Aug-19 04:27N 40°16' W 010°01'4 9.9
2017-Aug-19 04:00N 40°11' W 010°00'5 9.7
2017-Aug-19 03:31N 40°07' W 009°60'510.1
2017-Aug-19 03:01N 40°02' W 009°59'3310.6
2017-Aug-18 23:55N 39°29' W 009°56'510.9
2017-Aug-18 23:29N 39°24' W 009°55'510.7
2017-Aug-18 23:00N 39°19' W 009°55'510.6
2017-Aug-18 22:30N 39°14' W 009°54'510.8
2017-Aug-18 22:00N 39°09' W 009°54'510.5
2017-Aug-18 21:31N 39°03' W 009°53'510.5
2017-Aug-18 21:01N 38°58' W 009°53'510.8
2017-Aug-18 20:31N 38°53' W 009°53'510.7
2017-Aug-18 20:01N 38°47' W 009°52'510.7
2017-Aug-18 19:31N 38°42' W 009°51'510.4
2017-Aug-18 19:01N 38°37' W 009°50'510.1
2017-Aug-18 18:31N 38°32' W 009°48'5 9.9
2017-Aug-18 18:00N 38°27' W 009°46'510.2
2017-Aug-18 17:31N 38°22' W 009°45'5 9.8
2017-Aug-18 17:00N 38°18' W 009°44'5 9.6
2017-Aug-18 16:30N 38°13' W 009°42'5 9.4
2017-Aug-18 16:00N 38°08' W 009°41'5 9.1
2017-Aug-18 15:31N 38°04' W 009°39'4 8.9
2017-Aug-18 15:00N 37°60' W 009°38'9 8.9
2017-Aug-18 14:00N 37°51' W 009°36'4 8.8
2017-Aug-18 13:30N 37°47' W 009°34'5 8.9
2017-Aug-18 13:00N 37°42' W 009°33'5 9.1
2017-Aug-18 12:30N 37°38' W 009°32'5 9.4
2017-Aug-18 11:59N 37°33' W 009°30'5 9.6
2017-Aug-18 11:31N 37°29' W 009°29'5 9.9
2017-Aug-18 10:59N 37°24' W 009°27'810.0
2017-Aug-18 10:11N 37°16' W 009°25'33 9.4
2017-Aug-18 06:40N 36°45' W 009°08'2 9.9
2017-Aug-18 06:31N 36°45' W 009°06'5 9.7
2017-Aug-18 06:01N 36°44' W 009°01'5 9.6
2017-Aug-18 05:30N 36°44' W 008°55'510.2
2017-Aug-18 05:01N 36°45' W 008°48'510.6
2017-Aug-18 04:31N 36°46' W 008°42'611.1
2017-Aug-18 04:01N 36°47' W 008°35'1911.5
2017-Aug-18 02:20N 36°51' W 008°11'411.9
2017-Aug-18 02:00N 36°51' W 008°07'  
2017-Aug-13 03:38N 36°35' W 008°30'210.9
2017-Aug-13 03:29N 36°35' W 008°32'611.1
2017-Aug-13 02:57N 36°34' W 008°40'510.7
2017-Aug-13 02:29N 36°34' W 008°46'510.4
2017-Aug-13 02:01N 36°33' W 008°52'510.6
2017-Aug-13 01:30N 36°32' W 008°58'510.6
2017-Aug-13 01:00N 36°32' W 009°05'611.3
2017-Aug-13 00:30N 36°34' W 009°12'510.6
2017-Aug-13 00:00N 36°36' W 009°18'510.5
2017-Aug-12 23:29N 36°40' W 009°23'510.0
2017-Aug-12 23:01N 36°43' W 009°27'510.7
2017-Aug-12 22:31N 36°47' W 009°31'510.5
2017-Aug-12 22:01N 36°52' W 009°33'510.5
2017-Aug-12 21:30N 36°57' W 009°35'510.5
2017-Aug-12 21:01N 37°02' W 009°37'510.5
2017-Aug-12 20:30N 37°07' W 009°38'510.3
2017-Aug-12 20:01N 37°12' W 009°39'510.3
2017-Aug-12 19:31N 37°17' W 009°41'510.7
2017-Aug-12 19:00N 37°23' W 009°42'510.6
2017-Aug-12 18:31N 37°28' W 009°44'510.8
2017-Aug-12 18:01N 37°33' W 009°46'511.0
2017-Aug-12 17:30N 37°38' W 009°47'611.0
2017-Aug-12 17:00N 37°44' W 009°49'611.1
2017-Aug-12 16:30N 37°49' W 009°51'510.9
2017-Aug-12 16:00N 37°54' W 009°52'510.6
2017-Aug-12 15:30N 37°60' W 009°53'510.7
2017-Aug-12 15:00N 38°05' W 009°55'510.7
2017-Aug-12 14:31N 38°10' W 009°57'510.6
2017-Aug-12 14:01N 38°15' W 009°59'510.7
2017-Aug-12 13:31N 38°20' W 010°00'611.1
2017-Aug-12 13:01N 38°26' W 010°01'611.1
2017-Aug-12 12:31N 38°31' W 010°03'510.9
2017-Aug-12 12:00N 38°36' W 010°05'611.0
2017-Aug-12 11:31N 38°42' W 010°06'510.9
2017-Aug-12 11:00N 38°47' W 010°07'611.2
2017-Aug-12 10:31N 38°53' W 010°07'611.4
2017-Aug-12 10:00N 38°58' W 010°07'612.0
2017-Aug-12 09:31N 39°04' W 010°07'612.0
2017-Aug-12 09:01N 39°10' W 010°07'611.5
2017-Aug-12 08:31N 39°16' W 010°07'611.3
2017-Aug-12 08:00N 39°22' W 010°07'611.6
2017-Aug-12 07:30N 39°28' W 010°07'611.3
2017-Aug-12 07:00N 39°33' W 010°07'611.5
2017-Aug-12 06:31N 39°39' W 010°07'611.6
2017-Aug-12 06:01N 39°45' W 010°07'611.6
2017-Aug-12 05:30N 39°51' W 010°07'811.8
2017-Aug-12 04:50N 39°58' W 010°07'411.2
2017-Aug-12 04:30N 40°02' W 010°07'510.9
2017-Aug-12 04:00N 40°08' W 010°07'611.4
2017-Aug-12 03:30N 40°13' W 010°07'611.2
2017-Aug-12 02:58N 40°19' W 010°07'611.4
2017-Aug-12 02:28N 40°25' W 010°07'511.3
2017-Aug-12 02:00N 40°30' W 010°07'611.4
2017-Aug-12 01:30N 40°36' W 010°07'611.4
2017-Aug-12 01:00N 40°42' W 010°07'611.5
2017-Aug-12 00:30N 40°47' W 010°07'811.4
2017-Aug-11 23:49N 40°55' W 010°07'1111.6
2017-Aug-11 22:54N 41°06' W 010°07'511.4
2017-Aug-11 22:30N 41°10' W 010°07'611.3
2017-Aug-11 22:00N 41°16' W 010°07'611.4
2017-Aug-11 21:30N 41°22' W 010°07'511.1
2017-Aug-11 21:00N 41°27' W 010°07'611.0
2017-Aug-11 20:30N 41°33' W 010°07'511.0
2017-Aug-11 20:00N 41°38' W 010°07'611.3
2017-Aug-11 19:30N 41°44' W 010°07'510.9
2017-Aug-11 19:00N 41°49' W 010°07'  
Track history (hours):
 
Tides and Currents Weather Stations Pressure Air Temp Water Temp Dewpoint Dewpoint Depression Visibility Wind Speed Wind Dir Waves Ship Positions

Arklow Rogue

Last reported at 2017-Aug-21 18:41 UTC. Time now 2017-Aug-22 16:54 UTC.
Position N 50°58' W 010°41'.

Length 90 m; draft 3.4 m.

Type: Cargo ship. MMSI: 250000960.

Date/timePositionNaut miles runAvg speedWind from/ knotsBaromVisibWave heightAir tempDewpointWater temp
2017-Aug-21 18:41N 50°58' W 010°41'39711.0
2017-Aug-20 06:26N 44°21' W 010°20'1111.2
2017-Aug-20 05:26N 44°10' W 010°20'511.0
2017-Aug-20 04:59N 44°05' W 010°20'199 9.4
2017-Aug-19 07:55N 40°47' W 010°03'3 8.2
2017-Aug-19 07:30N 40°43' W 010°03'6 8.2
2017-Aug-19 06:48N 40°38' W 010°03'3 8.8
2017-Aug-19 06:30N 40°35' W 010°03'7 9.0
2017-Aug-19 05:43N 40°28' W 010°02'2 9.4
2017-Aug-19 05:29N 40°26' W 010°02'5 9.5
2017-Aug-19 04:57N 40°21' W 010°01'5 9.7
2017-Aug-19 04:27N 40°16' W 010°01'4 9.9
2017-Aug-19 04:00N 40°11' W 010°00'5 9.7
2017-Aug-19 03:31N 40°07' W 009°60'510.1
2017-Aug-19 03:01N 40°02' W 009°59'3310.6
2017-Aug-18 23:55N 39°29' W 009°56'510.9
2017-Aug-18 23:29N 39°24' W 009°55'510.7
2017-Aug-18 23:00N 39°19' W 009°55'510.6
2017-Aug-18 22:30N 39°14' W 009°54'510.8
2017-Aug-18 22:00N 39°09' W 009°54'510.5
2017-Aug-18 21:31N 39°03' W 009°53'510.5
2017-Aug-18 21:01N 38°58' W 009°53'510.8
2017-Aug-18 20:31N 38°53' W 009°53'510.7
2017-Aug-18 20:01N 38°47' W 009°52'510.7
2017-Aug-18 19:31N 38°42' W 009°51'510.4
2017-Aug-18 19:01N 38°37' W 009°50'510.1
2017-Aug-18 18:31N 38°32' W 009°48'5 9.9
2017-Aug-18 18:00N 38°27' W 009°46'510.2
2017-Aug-18 17:31N 38°22' W 009°45'5 9.8
2017-Aug-18 17:00N 38°18' W 009°44'5 9.6
2017-Aug-18 16:30N 38°13' W 009°42'5 9.4
2017-Aug-18 16:00N 38°08' W 009°41'5 9.1
2017-Aug-18 15:31N 38°04' W 009°39'4 8.9
2017-Aug-18 15:00N 37°60' W 009°38'9 8.9
2017-Aug-18 14:00N 37°51' W 009°36'4 8.8
2017-Aug-18 13:30N 37°47' W 009°34'5 8.9
2017-Aug-18 13:00N 37°42' W 009°33'5 9.1
2017-Aug-18 12:30N 37°38' W 009°32'5 9.4
2017-Aug-18 11:59N 37°33' W 009°30'5 9.6
2017-Aug-18 11:31N 37°29' W 009°29'5 9.9
2017-Aug-18 10:59N 37°24' W 009°27'810.0
2017-Aug-18 10:11N 37°16' W 009°25'33 9.4
2017-Aug-18 06:40N 36°45' W 009°08'2 9.9
2017-Aug-18 06:31N 36°45' W 009°06'5 9.7
2017-Aug-18 06:01N 36°44' W 009°01'5 9.6
2017-Aug-18 05:30N 36°44' W 008°55'510.2
2017-Aug-18 05:01N 36°45' W 008°48'510.6
2017-Aug-18 04:31N 36°46' W 008°42'611.1
2017-Aug-18 04:01N 36°47' W 008°35'1911.5
2017-Aug-18 02:20N 36°51' W 008°11'411.9
2017-Aug-18 02:00N 36°51' W 008°07'  
2017-Aug-13 03:38N 36°35' W 008°30'210.9
2017-Aug-13 03:29N 36°35' W 008°32'611.1
2017-Aug-13 02:57N 36°34' W 008°40'510.7
2017-Aug-13 02:29N 36°34' W 008°46'510.4
2017-Aug-13 02:01N 36°33' W 008°52'510.6
2017-Aug-13 01:30N 36°32' W 008°58'510.6
2017-Aug-13 01:00N 36°32' W 009°05'611.3
2017-Aug-13 00:30N 36°34' W 009°12'510.6
2017-Aug-13 00:00N 36°36' W 009°18'510.5
2017-Aug-12 23:29N 36°40' W 009°23'510.0
2017-Aug-12 23:01N 36°43' W 009°27'510.7
2017-Aug-12 22:31N 36°47' W 009°31'510.5
2017-Aug-12 22:01N 36°52' W 009°33'510.5
2017-Aug-12 21:30N 36°57' W 009°35'510.5
2017-Aug-12 21:01N 37°02' W 009°37'510.5
2017-Aug-12 20:30N 37°07' W 009°38'510.3
2017-Aug-12 20:01N 37°12' W 009°39'510.3
2017-Aug-12 19:31N 37°17' W 009°41'510.7
2017-Aug-12 19:00N 37°23' W 009°42'510.6
2017-Aug-12 18:31N 37°28' W 009°44'510.8
2017-Aug-12 18:01N 37°33' W 009°46'511.0
2017-Aug-12 17:30N 37°38' W 009°47'611.0
2017-Aug-12 17:00N 37°44' W 009°49'611.1
2017-Aug-12 16:30N 37°49' W 009°51'510.9
2017-Aug-12 16:00N 37°54' W 009°52'510.6
2017-Aug-12 15:30N 37°60' W 009°53'510.7
2017-Aug-12 15:00N 38°05' W 009°55'510.7
2017-Aug-12 14:31N 38°10' W 009°57'510.6
2017-Aug-12 14:01N 38°15' W 009°59'510.7
2017-Aug-12 13:31N 38°20' W 010°00'611.1
2017-Aug-12 13:01N 38°26' W 010°01'611.1
2017-Aug-12 12:31N 38°31' W 010°03'510.9
2017-Aug-12 12:00N 38°36' W 010°05'611.0
2017-Aug-12 11:31N 38°42' W 010°06'510.9
2017-Aug-12 11:00N 38°47' W 010°07'611.2
2017-Aug-12 10:31N 38°53' W 010°07'611.4
2017-Aug-12 10:00N 38°58' W 010°07'612.0
2017-Aug-12 09:31N 39°04' W 010°07'612.0
2017-Aug-12 09:01N 39°10' W 010°07'611.5
2017-Aug-12 08:31N 39°16' W 010°07'611.3
2017-Aug-12 08:00N 39°22' W 010°07'611.6
2017-Aug-12 07:30N 39°28' W 010°07'611.3
2017-Aug-12 07:00N 39°33' W 010°07'611.5
2017-Aug-12 06:31N 39°39' W 010°07'611.6
2017-Aug-12 06:01N 39°45' W 010°07'611.6
2017-Aug-12 05:30N 39°51' W 010°07'811.8
2017-Aug-12 04:50N 39°58' W 010°07'411.2
2017-Aug-12 04:30N 40°02' W 010°07'510.9
2017-Aug-12 04:00N 40°08' W 010°07'611.4
2017-Aug-12 03:30N 40°13' W 010°07'611.2
2017-Aug-12 02:58N 40°19' W 010°07'611.4
2017-Aug-12 02:28N 40°25' W 010°07'511.3
2017-Aug-12 02:00N 40°30' W 010°07'611.4
2017-Aug-12 01:30N 40°36' W 010°07'611.4
2017-Aug-12 01:00N 40°42' W 010°07'611.5
2017-Aug-12 00:30N 40°47' W 010°07'811.4
2017-Aug-11 23:49N 40°55' W 010°07'1111.6
2017-Aug-11 22:54N 41°06' W 010°07'511.4
2017-Aug-11 22:30N 41°10' W 010°07'611.3
2017-Aug-11 22:00N 41°16' W 010°07'611.4
2017-Aug-11 21:30N 41°22' W 010°07'511.1
2017-Aug-11 21:00N 41°27' W 010°07'611.0
2017-Aug-11 20:30N 41°33' W 010°07'511.0
2017-Aug-11 20:00N 41°38' W 010°07'611.3
2017-Aug-11 19:30N 41°44' W 010°07'510.9
2017-Aug-11 19:00N 41°49' W 010°07'  

Dump ship's entire track history